Stibnite, Idaho
Current Conditions -  °F | °C
As of 10:51 PM on Wednesday 22 Oct 2014 (Local Time) from KMYL Reporting Station
Overcast Overcast  
Wind Chill: 42°   Ceiling: 7500
Heat Index: 47°   Visibility: 10mi
Dew Point: 34°   Wind: 12mph
Humidity: 61%   Direction: 140°SE
Pressure: 30.01"   Gusts: NA
Location:  45.0816°N, 115.287°W
Report Text: KMYL 230451Z AUTO 14010KT 10SM FEW060 OVC075 08/01 A3001 RMK AO2 SLP165 T00830011
Loading
Personal Weather Stations






























Interactive Weather Map
Tropical Storm Tracking
New forecast layout! Learn more

10-Day Weather Forecast

Advertisements
Track Severe Weather on mobile